sensor_id;sensor_type;location;lat;lon;timestamp;pressure;altitude;pressure_sealevel;temperature;humidity
12172;BME280;6149;52.418;13.668;2023-07-31T00:00:03;100692.78;;;16.38;100.00
12172;BME280;6149;52.418;13.668;2023-07-31T00:02:31;100691.09;;;16.37;100.00
12172;BME280;6149;52.418;13.668;2023-07-31T00:04:59;100687.56;;;16.37;100.00
12172;BME280;6149;52.418;13.668;2023-07-31T00:07:26;100685.13;;;16.34;100.00
12172;BME280;6149;52.418;13.668;2023-07-31T00:09:53;100673.63;;;16.33;100.00
12172;BME280;6149;52.418;13.668;2023-07-31T00:12:21;100674.72;;;16.31;100.00
12172;BME280;6149;52.418;13.668;2023-07-31T00:14:48;100670.47;;;16.28;100.00
12172;BME280;6149;52.418;13.668;2023-07-31T00:17:16;100671.44;;;16.27;100.00
12172;BME280;6149;52.418;13.668;2023-07-31T00:19:44;100666.56;;;16.21;100.00
12172;BME280;6149;52.418;13.668;2023-07-31T00:22:12;100668.47;;;16.19;100.00
12172;BME280;6149;52.418;13.668;2023-07-31T00:24:39;100679.50;;;16.15;100.00
12172;BME280;6149;52.418;13.668;2023-07-31T00:27:05;100678.13;;;16.09;100.00
12172;BME280;6149;52.418;13.668;2023-07-31T00:29:32;100673.03;;;16.06;100.00
12172;BME280;6149;52.418;13.668;2023-07-31T00:32:00;100665.38;;;16.01;100.00
12172;BME280;6149;52.418;13.668;2023-07-31T00:34:27;100656.88;;;15.96;100.00
12172;BME280;6149;52.418;13.668;2023-07-31T00:36:54;100649.09;;;15.93;100.00
12172;BME280;6149;52.418;13.668;2023-07-31T00:39:21;100651.16;;;15.90;100.00
12172;BME280;6149;52.418;13.668;2023-07-31T00:41:48;100646.78;;;15.89;100.00
12172;BME280;6149;52.418;13.668;2023-07-31T00:44:15;100636.97;;;15.89;100.00
12172;BME280;6149;52.418;13.668;2023-07-31T00:46:42;100628.22;;;15.87;100.00
12172;BME280;6149;52.418;13.668;2023-07-31T00:49:08;100623.84;;;15.86;100.00
12172;BME280;6149;52.418;13.668;2023-07-31T00:51:35;100623.00;;;15.86;100.00
12172;BME280;6149;52.418;13.668;2023-07-31T00:54:02;100620.22;;;15.87;100.00
12172;BME280;6149;52.418;13.668;2023-07-31T00:56:32;100617.66;;;15.86;100.00
12172;BME280;6149;52.418;13.668;2023-07-31T00:58:58;100619.59;;;15.84;100.00
12172;BME280;6149;52.418;13.668;2023-07-31T01:01:25;100619.59;;;15.84;100.00
12172;BME280;6149;52.418;13.668;2023-07-31T01:03:54;100621.41;;;15.83;100.00
12172;BME280;6149;52.418;13.668;2023-07-31T01:06:24;100614.28;;;15.84;100.00
12172;BME280;6149;52.418;13.668;2023-07-31T01:09:03;100615.13;;;15.84;100.00
12172;BME280;6149;52.418;13.668;2023-07-31T01:11:35;100615.97;;;15.85;100.00
12172;BME280;6149;52.418;13.668;2023-07-31T01:14:05;100623.75;;;15.88;100.00
12172;BME280;6149;52.418;13.668;2023-07-31T01:16:32;100632.38;;;15.91;100.00
12172;BME280;6149;52.418;13.668;2023-07-31T01:18:59;100633.69;;;15.97;100.00
12172;BME280;6149;52.418;13.668;2023-07-31T01:21:41;100626.19;;;15.91;100.00
12172;BME280;6149;52.418;13.668;2023-07-31T01:24:21;100611.16;;;15.90;100.00
12172;BME280;6149;52.418;13.668;2023-07-31T01:26:55;100606.66;;;15.90;100.00
12172;BME280;6149;52.418;13.668;2023-07-31T01:29:31;100606.56;;;15.92;100.00
12172;BME280;6149;52.418;13.668;2023-07-31T01:32:02;100606.56;;;15.92;100.00
12172;BME280;6149;52.418;13.668;2023-07-31T01:34:30;100596.72;;;15.92;100.00
12172;BME280;6149;52.418;13.668;2023-07-31T01:36:59;100594.06;;;15.92;100.00
12172;BME280;6149;52.418;13.668;2023-07-31T01:39:26;100599.41;;;15.92;100.00
12172;BME280;6149;52.418;13.668;2023-07-31T01:41:54;100595.16;;;15.90;100.00
12172;BME280;6149;52.418;13.668;2023-07-31T01:44:21;100590.78;;;15.89;100.00
12172;BME280;6149;52.418;13.668;2023-07-31T01:46:47;100589.06;;;15.88;100.00
12172;BME280;6149;52.418;13.668;2023-07-31T01:49:14;100590.03;;;15.87;100.00
12172;BME280;6149;52.418;13.668;2023-07-31T01:51:40;100589.31;;;15.85;100.00
12172;BME280;6149;52.418;13.668;2023-07-31T01:54:07;100589.53;;;15.82;100.00
12172;BME280;6149;52.418;13.668;2023-07-31T01:56:33;100589.75;;;15.79;100.00
12172;BME280;6149;52.418;13.668;2023-07-31T01:59:01;100583.81;;;15.75;100.00
12172;BME280;6149;52.418;13.668;2023-07-31T02:01:28;100582.97;;;15.75;100.00
12172;BME280;6149;52.418;13.668;2023-07-31T02:03:54;100581.59;;;15.69;100.00
12172;BME280;6149;52.418;13.668;2023-07-31T02:06:21;100574.06;;;15.63;100.00
12172;BME280;6149;52.418;13.668;2023-07-31T02:08:48;100572.72;;;15.57;100.00
12172;BME280;6149;52.418;13.668;2023-07-31T02:11:15;100567.47;;;15.56;100.00
12172;BME280;6149;52.418;13.668;2023-07-31T02:13:41;100573.88;;;15.53;100.00
12172;BME280;6149;52.418;13.668;2023-07-31T02:16:09;100570.34;;;15.53;100.00
12172;BME280;6149;52.418;13.668;2023-07-31T02:18:36;100573.88;;;15.53;100.00
12172;BME280;6149;52.418;13.668;2023-07-31T02:21:03;100575.56;;;15.54;100.00
12172;BME280;6149;52.418;13.668;2023-07-31T02:23:29;100572.81;;;15.56;100.00
12172;BME280;6149;52.418;13.668;2023-07-31T02:25:56;100569.94;;;15.59;100.00
12172;BME280;6149;52.418;13.668;2023-07-31T02:28:23;100562.53;;;15.62;100.00
12172;BME280;6149;52.418;13.668;2023-07-31T02:30:50;100559.75;;;15.64;100.00
12172;BME280;6149;52.418;13.668;2023-07-31T02:33:18;100560.50;;;15.66;100.00
12172;BME280;6149;52.418;13.668;2023-07-31T02:35:45;100563.03;;;15.67;100.00
12172;BME280;6149;52.418;13.668;2023-07-31T02:38:11;100554.31;;;15.65;100.00
12172;BME280;6149;52.418;13.668;2023-07-31T02:40:39;100549.94;;;15.64;100.00
12172;BME280;6149;52.418;13.668;2023-07-31T02:43:06;100555.28;;;15.64;100.00
12172;BME280;6149;52.418;13.668;2023-07-31T02:45:33;100552.59;;;15.64;100.00
12172;BME280;6149;52.418;13.668;2023-07-31T02:47:59;100549.94;;;15.64;100.00
12172;BME280;6149;52.418;13.668;2023-07-31T02:50:27;100547.28;;;15.64;100.00
12172;BME280;6149;52.418;13.668;2023-07-31T02:52:54;100551.88;;;15.62;100.00
12172;BME280;6149;52.418;13.668;2023-07-31T02:55:20;100552.94;;;15.60;100.00
12172;BME280;6149;52.418;13.668;2023-07-31T02:57:47;100551.03;;;15.62;100.00
12172;BME280;6149;52.418;13.668;2023-07-31T03:00:13;100550.53;;;15.57;100.00
12172;BME280;6149;52.418;13.668;2023-07-31T03:02:40;100547.88;;;15.57;100.00
12172;BME280;6149;52.418;13.668;2023-07-31T03:05:07;100546.06;;;15.57;100.00
12172;BME280;6149;52.418;13.668;2023-07-31T03:07:35;100546.66;;;15.61;100.00
12172;BME280;6149;52.418;13.668;2023-07-31T03:10:04;100545.09;;;15.58;100.00
12172;BME280;6149;52.418;13.668;2023-07-31T03:12:31;100548.34;;;15.62;100.00
12172;BME280;6149;52.418;13.668;2023-07-31T03:14:58;100551.03;;;15.62;100.00
12172;BME280;6149;52.418;13.668;2023-07-31T03:17:24;100552.38;;;15.67;100.00
12172;BME280;6149;52.418;13.668;2023-07-31T03:19:51;100545.34;;;15.66;100.00
12172;BME280;6149;52.418;13.668;2023-07-31T03:22:17;100541.09;;;15.64;100.00
12172;BME280;6149;52.418;13.668;2023-07-31T03:24:45;100537.97;;;15.59;100.00
12172;BME280;6149;52.418;13.668;2023-07-31T03:27:12;100538.25;;;15.54;100.00
12172;BME280;6149;52.418;13.668;2023-07-31T03:29:38;100543.59;;;15.54;100.00
12172;BME280;6149;52.418;13.668;2023-07-31T03:32:05;100536.91;;;15.49;100.00
12172;BME280;6149;52.418;13.668;2023-07-31T03:34:32;100545.75;;;15.49;100.00
12172;BME280;6149;52.418;13.668;2023-07-31T03:36:59;100544.03;;;15.48;100.00
12172;BME280;6149;52.418;13.668;2023-07-31T03:39:25;100540.88;;;15.43;100.00
12172;BME280;6149;52.418;13.668;2023-07-31T03:41:53;100538.94;;;15.45;100.00
12172;BME280;6149;52.418;13.668;2023-07-31T03:44:20;100538.09;;;15.45;100.00
12172;BME280;6149;52.418;13.668;2023-07-31T03:46:46;100530.22;;;15.43;100.00
12172;BME280;6149;52.418;13.668;2023-07-31T03:49:13;100532.13;;;15.41;100.00
12172;BME280;6149;52.418;13.668;2023-07-31T03:51:39;100530.31;;;15.42;100.00
12172;BME280;6149;52.418;13.668;2023-07-31T03:54:06;100527.44;;;15.45;100.00
12172;BME280;6149;52.418;13.668;2023-07-31T03:56:33;100529.34;;;15.43;100.00
12172;BME280;6149;52.418;13.668;2023-07-31T03:59:01;100532.03;;;15.43;100.00
12172;BME280;6149;52.418;13.668;2023-07-31T04:01:28;100525.72;;;15.44;100.00
12172;BME280;6149;52.418;13.668;2023-07-31T04:03:54;100524.75;;;15.45;100.00
12172;BME280;6149;52.418;13.668;2023-07-31T04:06:21;100519.56;;;15.43;100.00
12172;BME280;6149;52.418;13.668;2023-07-31T04:08:47;100523.06;;;15.44;100.00
12172;BME280;6149;52.418;13.668;2023-07-31T04:11:14;100521.03;;;15.47;100.00
12172;BME280;6149;52.418;13.668;2023-07-31T04:13:40;100513.16;;;15.46;100.00
12172;BME280;6149;52.418;13.668;2023-07-31T04:16:08;100514.72;;;15.48;100.00
12172;BME280;6149;52.418;13.668;2023-07-31T04:18:35;100508.44;;;15.49;100.00
12172;BME280;6149;52.418;13.668;2023-07-31T04:21:02;100509.63;;;15.45;100.00
12172;BME280;6149;52.418;13.668;2023-07-31T04:23:29;100505.03;;;15.47;100.00
12172;BME280;6149;52.418;13.668;2023-07-31T04:25:56;100496.94;;;15.49;100.00
12172;BME280;6149;52.418;13.668;2023-07-31T04:28:22;100502.03;;;15.52;100.00
12172;BME280;6149;52.418;13.668;2023-07-31T04:30:51;100497.03;;;15.47;100.00
12172;BME280;6149;52.418;13.668;2023-07-31T04:33:19;100504.19;;;15.47;100.00
12172;BME280;6149;52.418;13.668;2023-07-31T04:35:49;100492.44;;;15.49;100.00
12172;BME280;6149;52.418;13.668;2023-07-31T04:38:17;100489.16;;;15.46;100.00
12172;BME280;6149;52.418;13.668;2023-07-31T04:40:44;100489.03;;;15.47;100.00
12172;BME280;6149;52.418;13.668;2023-07-31T04:43:10;100498.00;;;15.46;100.00
12172;BME280;6149;52.418;13.668;2023-07-31T04:45:37;100495.97;;;15.50;100.00
12172;BME280;6149;52.418;13.668;2023-07-31T04:48:04;100496.06;;;15.48;100.00
12172;BME280;6149;52.418;13.668;2023-07-31T04:50:32;100487.84;;;15.51;100.00
12172;BME280;6149;52.418;13.668;2023-07-31T04:52:58;100486.16;;;15.50;100.00
12172;BME280;6149;52.418;13.668;2023-07-31T04:55:25;100486.03;;;15.52;100.00
12172;BME280;6149;52.418;13.668;2023-07-31T04:57:51;100476.97;;;15.54;100.00
12172;BME280;6149;52.418;13.668;2023-07-31T05:00:19;100474.94;;;15.58;100.00
12172;BME280;6149;52.418;13.668;2023-07-31T05:02:46;100472.28;;;15.58;100.00
12172;BME280;6149;52.418;13.668;2023-07-31T05:05:13;100473.25;;;15.57;100.00
12172;BME280;6149;52.418;13.668;2023-07-31T05:07:41;100473.13;;;15.58;100.00
12172;BME280;6149;52.418;13.668;2023-07-31T05:10:08;100471.31;;;15.59;100.00
12172;BME280;6149;52.418;13.668;2023-07-31T05:12:36;100476.03;;;15.66;100.00
12172;BME280;6149;52.418;13.668;2023-07-31T05:15:04;100472.41;;;15.67;100.00
12172;BME280;6149;52.418;13.668;2023-07-31T05:17:31;100481.03;;;15.71;100.00
12172;BME280;6149;52.418;13.668;2023-07-31T05:19:57;100477.16;;;15.75;100.00
12172;BME280;6149;52.418;13.668;2023-07-31T05:22:24;100484.06;;;15.78;100.00
12172;BME280;6149;52.418;13.668;2023-07-31T05:24:52;100480.22;;;15.82;100.00
12172;BME280;6149;52.418;13.668;2023-07-31T05:27:19;100472.94;;;15.84;100.00
12172;BME280;6149;52.418;13.668;2023-07-31T05:29:45;100477.06;;;15.88;100.00
12172;BME280;6149;52.418;13.668;2023-07-31T05:32:12;100474.06;;;15.92;100.00
12172;BME280;6149;52.418;13.668;2023-07-31T05:34:38;100476.72;;;15.92;100.00
12172;BME280;6149;52.418;13.668;2023-07-31T05:37:05;100463.50;;;15.91;100.00
12172;BME280;6149;52.418;13.668;2023-07-31T05:39:32;100469.81;;;15.90;100.00
12172;BME280;6149;52.418;13.668;2023-07-31T05:42:02;100464.47;;;15.90;100.00
12172;BME280;6149;52.418;13.668;2023-07-31T05:44:29;100469.06;;;15.88;100.00
12172;BME280;6149;52.418;13.668;2023-07-31T05:46:55;100468.00;;;15.90;100.00
12172;BME280;6149;52.418;13.668;2023-07-31T05:49:22;100470.53;;;15.92;100.00
12172;BME280;6149;52.418;13.668;2023-07-31T05:51:48;100470.03;;;15.87;100.00
12172;BME280;6149;52.418;13.668;2023-07-31T05:54:15;100464.47;;;15.90;100.00
12172;BME280;6149;52.418;13.668;2023-07-31T05:56:42;100462.78;;;15.89;100.00
12172;BME280;6149;52.418;13.668;2023-07-31T05:59:11;100469.81;;;15.90;100.00
12172;BME280;6149;52.418;13.668;2023-07-31T06:01:38;100460.84;;;15.91;100.00
12172;BME280;6149;52.418;13.668;2023-07-31T06:04:06;100468.00;;;15.90;100.00
12172;BME280;6149;52.418;13.668;2023-07-31T06:06:32;100466.06;;;15.92;100.00
12172;BME280;6149;52.418;13.668;2023-07-31T06:08:59;100469.56;;;15.93;100.00
12172;BME280;6149;52.418;13.668;2023-07-31T06:11:25;100462.41;;;15.93;100.00
12172;BME280;6149;52.418;13.668;2023-07-31T06:13:52;100456.59;;;15.99;100.00
12172;BME280;6149;52.418;13.668;2023-07-31T06:16:20;100463.50;;;16.02;100.00
12172;BME280;6149;52.418;13.668;2023-07-31T06:18:47;100457.31;;;16.01;100.00
12172;BME280;6149;52.418;13.668;2023-07-31T06:21:14;100467.00;;;16.02;100.00
12172;BME280;6149;52.418;13.668;2023-07-31T06:23:40;100468.13;;;16.11;100.00
12172;BME280;6149;52.418;13.668;2023-07-31T06:26:07;100462.06;;;16.09;100.00
12172;BME280;6149;52.418;13.668;2023-07-31T06:28:34;100465.44;;;16.11;100.00
12172;BME280;6149;52.418;13.668;2023-07-31T06:31:01;100459.88;;;16.14;100.00
12172;BME280;6149;52.418;13.668;2023-07-31T06:33:29;100464.47;;;16.12;100.00
12172;BME280;6149;52.418;13.668;2023-07-31T06:35:55;100460.34;;;16.08;100.00
12172;BME280;6149;52.418;13.668;2023-07-31T06:38:24;100469.22;;;16.09;100.00
12172;BME280;6149;52.418;13.668;2023-07-31T06:40:53;100462.28;;;16.06;100.00
12172;BME280;6149;52.418;13.668;2023-07-31T06:43:20;100456.59;;;16.11;100.00
12172;BME280;6149;52.418;13.668;2023-07-31T06:46:05;100460.00;;;16.13;100.00
12172;BME280;6149;52.418;13.668;2023-07-31T06:48:34;100462.91;;;16.10;100.00
12172;BME280;6149;52.418;13.668;2023-07-31T06:51:03;100455.63;;;16.12;100.00
12172;BME280;6149;52.418;13.668;2023-07-31T06:53:30;100465.94;;;16.16;100.00
12172;BME280;6149;52.418;13.668;2023-07-31T06:56:00;100460.13;;;16.22;100.00
12172;BME280;6149;52.418;13.668;2023-07-31T06:58:28;100463.16;;;16.18;100.00
12172;BME280;6149;52.418;13.668;2023-07-31T07:00:54;100454.41;;;16.16;100.00
12172;BME280;6149;52.418;13.668;2023-07-31T07:03:21;100455.75;;;16.21;100.00
12172;BME280;6149;52.418;13.668;2023-07-31T07:05:48;100452.25;;;16.21;100.00
12172;BME280;6149;52.418;13.668;2023-07-31T07:08:15;100458.06;;;16.26;100.00
12172;BME280;6149;52.418;13.668;2023-07-31T07:10:42;100455.75;;;16.21;100.00
12172;BME280;6149;52.418;13.668;2023-07-31T07:13:08;100446.06;;;16.20;100.00
12172;BME280;6149;52.418;13.668;2023-07-31T07:15:36;100447.16;;;16.18;100.00
12172;BME280;6149;52.418;13.668;2023-07-31T07:18:03;100449.81;;;16.18;100.00
12172;BME280;6149;52.418;13.668;2023-07-31T07:20:30;100453.34;;;16.18;100.00
12172;BME280;6149;52.418;13.668;2023-07-31T07:22:59;100449.81;;;16.18;100.00
12172;BME280;6149;52.418;13.668;2023-07-31T07:25:25;100460.13;;;16.22;100.00
12172;BME280;6149;52.418;13.668;2023-07-31T07:27:52;100457.34;;;16.24;100.00
12172;BME280;6149;52.418;13.668;2023-07-31T07:30:21;100453.09;;;16.21;100.00
12172;BME280;6149;52.418;13.668;2023-07-31T07:32:50;100450.56;;;16.20;100.00
12172;BME280;6149;52.418;13.668;2023-07-31T07:35:16;100453.81;;;16.23;100.00
12172;BME280;6149;52.418;13.668;2023-07-31T07:37:43;100453.47;;;16.28;100.00
12172;BME280;6149;52.418;13.668;2023-07-31T07:40:11;100456.25;;;16.26;100.00
12172;BME280;6149;52.418;13.668;2023-07-31T07:42:38;100450.44;;;16.32;100.00
12172;BME280;6149;52.418;13.668;2023-07-31T07:45:05;100447.50;;;16.35;100.00
12172;BME280;6149;52.418;13.668;2023-07-31T07:47:32;100448.94;;;16.39;100.00
12172;BME280;6149;52.418;13.668;2023-07-31T07:49:59;100441.91;;;16.50;100.00
12172;BME280;6149;52.418;13.668;2023-07-31T07:52:49;100437.53;;;16.49;100.00
12172;BME280;6149;52.418;13.668;2023-07-31T07:55:18;100434.25;;;16.56;100.00
12172;BME280;6149;52.418;13.668;2023-07-31T07:57:45;100441.41;;;16.56;100.00
12172;BME280;6149;52.418;13.668;2023-07-31T08:00:12;100424.31;;;16.58;100.00
12172;BME280;6149;52.418;13.668;2023-07-31T08:02:42;100423.72;;;16.66;100.00
12172;BME280;6149;52.418;13.668;2023-07-31T08:05:09;100422.56;;;16.80;100.00
12172;BME280;6149;52.418;13.668;2023-07-31T08:07:36;100428.53;;;16.83;100.00
12172;BME280;6149;52.418;13.668;2023-07-31T08:10:03;100424.75;;;16.86;100.00
12172;BME280;6149;52.418;13.668;2023-07-31T08:12:33;100427.06;;;16.90;100.00
12172;BME280;6149;52.418;13.668;2023-07-31T08:15:02;100433.59;;;16.97;100.00
12172;BME280;6149;52.418;13.668;2023-07-31T08:17:29;100431.25;;;17.04;100.00
12172;BME280;6149;52.418;13.668;2023-07-31T08:19:55;100441.34;;;17.00;100.00
12172;BME280;6149;52.418;13.668;2023-07-31T08:22:23;100439.66;;;16.99;100.00
12172;BME280;6149;52.418;13.668;2023-07-31T08:24:50;100432.75;;;16.97;100.00
12172;BME280;6149;52.418;13.668;2023-07-31T08:27:16;100426.53;;;16.96;100.00
12172;BME280;6149;52.418;13.668;2023-07-31T08:29:44;100430.41;;;17.03;100.00
12172;BME280;6149;52.418;13.668;2023-07-31T08:32:11;100418.63;;;17.06;100.00
12172;BME280;6149;52.418;13.668;2023-07-31T08:34:37;100422.16;;;17.07;100.00
12172;BME280;6149;52.418;13.668;2023-07-31T08:37:04;100423.56;;;17.11;100.00
12172;BME280;6149;52.418;13.668;2023-07-31T08:39:30;100424.53;;;17.10;100.00
12172;BME280;6149;52.418;13.668;2023-07-31T08:41:58;100411.78;;;17.13;100.00
12172;BME280;6149;52.418;13.668;2023-07-31T08:44:25;100415.03;;;17.17;100.00
12172;BME280;6149;52.418;13.668;2023-07-31T08:46:53;100411.63;;;17.15;100.00
12172;BME280;6149;52.418;13.668;2023-07-31T08:49:20;100407.88;;;17.17;100.00
12172;BME280;6149;52.418;13.668;2023-07-31T08:51:50;100411.97;;;17.21;100.00
12172;BME280;6149;52.418;13.668;2023-07-31T08:54:17;100419.97;;;17.32;100.00
12172;BME280;6149;52.418;13.668;2023-07-31T08:56:44;100412.06;;;17.31;100.00
12172;BME280;6149;52.418;13.668;2023-07-31T08:59:14;100408.28;;;17.33;100.00
12172;BME280;6149;52.418;13.668;2023-07-31T09:01:44;100406.66;;;17.42;100.00
12172;BME280;6149;52.418;13.668;2023-07-31T09:04:20;100411.53;;;17.58;100.00
12172;BME280;6149;52.418;13.668;2023-07-31T09:06:47;100405.81;;;17.62;100.00
12172;BME280;6149;52.418;13.668;2023-07-31T09:09:17;100415.06;;;17.58;100.00
12172;BME280;6149;52.418;13.668;2023-07-31T09:11:46;100412.25;;;17.60;100.00
12172;BME280;6149;52.418;13.668;2023-07-31T09:14:13;100420.50;;;17.68;100.00
12172;BME280;6149;52.418;13.668;2023-07-31T09:16:51;100420.13;;;17.73;100.00
12172;BME280;6149;52.418;13.668;2023-07-31T09:19:26;100419.72;;;17.77;100.00
12172;BME280;6149;52.418;13.668;2023-07-31T09:21:56;100417.34;;;17.84;100.00
12172;BME280;6149;52.418;13.668;2023-07-31T09:24:26;100427.13;;;17.94;100.00
12172;BME280;6149;52.418;13.668;2023-07-31T09:26:55;100421.50;;;17.97;100.00
12172;BME280;6149;52.418;13.668;2023-07-31T09:29:25;100412.28;;;18.11;100.00
12172;BME280;6149;52.418;13.668;2023-07-31T09:31:56;100411.03;;;18.15;100.00
12172;BME280;6149;52.418;13.668;2023-07-31T09:34:29;100422.72;;;18.14;100.00
12172;BME280;6149;52.418;13.668;2023-07-31T09:37:01;100418.22;;;18.15;100.00
12172;BME280;6149;52.418;13.668;2023-07-31T09:39:29;100414.31;;;18.19;100.00
12172;BME280;6149;52.418;13.668;2023-07-31T09:41:56;100416.53;;;18.23;100.00
12172;BME280;6149;52.418;13.668;2023-07-31T09:44:37;100410.22;;;18.24;100.00
12172;BME280;6149;52.418;13.668;2023-07-31T09:47:06;100415.97;;;18.20;100.00
12172;BME280;6149;52.418;13.668;2023-07-31T09:49:34;100413.72;;;18.15;100.00
12172;BME280;6149;52.418;13.668;2023-07-31T09:52:00;100416.66;;;18.12;100.00
12172;BME280;6149;52.418;13.668;2023-07-31T09:54:27;100417.47;;;18.03;100.00
12172;BME280;6149;52.418;13.668;2023-07-31T09:56:56;100408.59;;;18.02;100.00
12172;BME280;6149;52.418;13.668;2023-07-31T09:59:25;100406.34;;;18.08;100.00
12172;BME280;6149;52.418;13.668;2023-07-31T10:01:52;100408.75;;;18.11;100.00
12172;BME280;6149;52.418;13.668;2023-07-31T10:04:27;100397.22;;;18.20;100.00
12172;BME280;6149;52.418;13.668;2023-07-31T10:06:56;100402.31;;;18.23;100.00
12172;BME280;6149;52.418;13.668;2023-07-31T10:09:25;100400.22;;;18.26;100.00
12172;BME280;6149;52.418;13.668;2023-07-31T10:11:58;100392.50;;;18.33;100.00
12172;BME280;6149;52.418;13.668;2023-07-31T10:14:28;100393.06;;;18.36;100.00
12172;BME280;6149;52.418;13.668;2023-07-31T10:16:56;100394.34;;;18.42;100.00
12172;BME280;6149;52.418;13.668;2023-07-31T10:19:23;100387.16;;;18.43;100.00
12172;BME280;6149;52.418;13.668;2023-07-31T10:21:52;100383.94;;;18.49;100.00
12172;BME280;6149;52.418;13.668;2023-07-31T10:24:25;100389.88;;;18.52;100.00
12172;BME280;6149;52.418;13.668;2023-07-31T10:26:53;100389.44;;;18.57;100.00
12172;BME280;6149;52.418;13.668;2023-07-31T10:29:24;100383.25;;;18.56;100.00
12172;BME280;6149;52.418;13.668;2023-07-31T10:31:52;100381.84;;;18.52;100.00
12172;BME280;6149;52.418;13.668;2023-07-31T10:34:18;100380.44;;;18.48;100.00
12172;BME280;6149;52.418;13.668;2023-07-31T10:36:45;100381.13;;;18.50;100.00
12172;BME280;6149;52.418;13.668;2023-07-31T10:39:36;100375.91;;;18.49;100.00
12172;BME280;6149;52.418;13.668;2023-07-31T10:42:11;100377.59;;;18.59;100.00
12172;BME280;6149;52.418;13.668;2023-07-31T10:44:43;100383.09;;;18.58;100.00
12172;BME280;6149;52.418;13.668;2023-07-31T10:47:14;100379.88;;;18.54;100.00
12172;BME280;6149;52.418;13.668;2023-07-31T10:49:45;100382.41;;;18.56;100.00
12172;BME280;6149;52.418;13.668;2023-07-31T10:52:19;100375.81;;;18.60;100.00
12172;BME280;6149;52.418;13.668;2023-07-31T10:54:49;100374.97;;;18.69;100.00
12172;BME280;6149;52.418;13.668;2023-07-31T10:57:20;100365.25;;;18.78;100.00
12172;BME280;6149;52.418;13.668;2023-07-31T10:59:48;100356.81;;;18.92;100.00
12172;BME280;6149;52.418;13.668;2023-07-31T11:02:25;100349.88;;;19.09;100.00
12172;BME280;6149;52.418;13.668;2023-07-31T11:05:08;100332.53;;;19.22;100.00
12172;BME280;6149;52.418;13.668;2023-07-31T11:07:48;100343.47;;;19.48;100.00
12172;BME280;6149;52.418;13.668;2023-07-31T11:10:18;100330.47;;;19.63;100.00
12172;BME280;6149;52.418;13.668;2023-07-31T11:12:45;100326.72;;;19.83;100.00
12172;BME280;6149;52.418;13.668;2023-07-31T11:15:12;100326.09;;;19.99;100.00
12172;BME280;6149;52.418;13.668;2023-07-31T11:17:40;100319.22;;;20.14;100.00
12172;BME280;6149;52.418;13.668;2023-07-31T11:20:08;100317.44;;;20.32;100.00
12172;BME280;6149;52.418;13.668;2023-07-31T11:22:36;100309.31;;;20.42;100.00
12172;BME280;6149;52.418;13.668;2023-07-31T11:25:03;100310.94;;;20.53;100.00
12172;BME280;6149;52.418;13.668;2023-07-31T11:27:38;100316.88;;;20.74;100.00
12172;BME280;6149;52.418;13.668;2023-07-31T11:30:07;100317.25;;;20.79;100.00
12172;BME280;6149;52.418;13.668;2023-07-31T11:32:36;100305.81;;;20.77;100.00
12172;BME280;6149;52.418;13.668;2023-07-31T11:35:05;100310.00;;;20.97;98.51
12172;BME280;6149;52.418;13.668;2023-07-31T11:37:40;100306.16;;;21.00;98.06
12172;BME280;6149;52.418;13.668;2023-07-31T11:40:07;100319.91;;;20.97;94.71
12172;BME280;6149;52.418;13.668;2023-07-31T11:42:36;100317.91;;;20.99;90.99
12172;BME280;6149;52.418;13.668;2023-07-31T11:45:03;100313.63;;;20.88;91.37
12172;BME280;6149;52.418;13.668;2023-07-31T11:47:32;100305.09;;;20.93;90.95
12172;BME280;6149;52.418;13.668;2023-07-31T11:50:00;100309.84;;;20.99;91.36
12172;BME280;6149;52.418;13.668;2023-07-31T11:52:30;100304.41;;;21.09;92.89
12172;BME280;6149;52.418;13.668;2023-07-31T11:55:00;100306.94;;;21.10;90.42
12172;BME280;6149;52.418;13.668;2023-07-31T11:57:27;100299.31;;;21.06;90.22
12172;BME280;6149;52.418;13.668;2023-07-31T11:59:57;100309.69;;;21.00;89.00
12172;BME280;6149;52.418;13.668;2023-07-31T12:02:26;100299.25;;;20.97;89.15
12172;BME280;6149;52.418;13.668;2023-07-31T12:04:52;100307.47;;;20.96;87.07
12172;BME280;6149;52.418;13.668;2023-07-31T12:07:21;100315.84;;;20.93;89.22
12172;BME280;6149;52.418;13.668;2023-07-31T12:09:52;100309.78;;;20.91;88.91
12172;BME280;6149;52.418;13.668;2023-07-31T12:12:20;100310.25;;;20.86;91.80
12172;BME280;6149;52.418;13.668;2023-07-31T12:14:47;100301.19;;;20.87;93.75
12172;BME280;6149;52.418;13.668;2023-07-31T12:17:15;100306.25;;;20.90;90.96
12172;BME280;6149;52.418;13.668;2023-07-31T12:19:42;100299.03;;;20.91;92.04
12172;BME280;6149;52.418;13.668;2023-07-31T12:22:12;100306.25;;;20.90;91.49
12172;BME280;6149;52.418;13.668;2023-07-31T12:24:39;100288.91;;;20.85;89.55
12172;BME280;6149;52.418;13.668;2023-07-31T12:27:11;100306.25;;;20.90;91.84
12172;BME280;6149;52.418;13.668;2023-07-31T12:29:40;100293.56;;;21.00;90.20
12172;BME280;6149;52.418;13.668;2023-07-31T12:32:24;100291.81;;;20.91;89.61
12172;BME280;6149;52.418;13.668;2023-07-31T12:34:59;100299.56;;;20.94;91.53
12172;BME280;6149;52.418;13.668;2023-07-31T12:37:26;100294.50;;;20.91;89.77
12172;BME280;6149;52.418;13.668;2023-07-31T12:39:53;100297.56;;;20.96;91.28
12172;BME280;6149;52.418;13.668;2023-07-31T12:42:21;100291.44;;;20.86;88.02
12172;BME280;6149;52.418;13.668;2023-07-31T12:44:48;100301.44;;;20.76;90.88